createdAt,value
2022-09-06T00:00:06.725Z,100328.03
2022-09-06T00:02:37.689Z,100299.22
2022-09-06T00:05:12.082Z,100327.13
2022-09-06T00:07:47.596Z,100322.84
2022-09-06T00:10:17.395Z,100324.25
2022-09-06T00:12:50.078Z,100315.84
2022-09-06T00:15:24.364Z,100314.34
2022-09-06T00:18:01.021Z,100314.09
2022-09-06T00:20:37.697Z,100319.88
2022-09-06T00:23:12.050Z,100324.59
2022-09-06T00:25:44.732Z,100322.53
2022-09-06T00:28:17.347Z,100289.88
2022-09-06T00:30:55.396Z,100325.88
2022-09-06T00:33:28.089Z,100318.19
2022-09-06T00:36:07.039Z,100330.00
2022-09-06T00:38:39.010Z,100326.03
2022-09-06T00:41:11.969Z,100320.25
2022-09-06T00:44:01.882Z,100326.00
2022-09-06T00:46:39.959Z,100320.56
2022-09-06T00:49:16.141Z,100330.44
2022-09-06T00:51:48.982Z,100333.53
2022-09-06T00:54:19.575Z,100325.63
2022-09-06T00:56:52.986Z,100332.56
2022-09-06T00:59:25.888Z,100318.84
2022-09-06T01:01:56.497Z,100331.88
2022-09-06T01:04:34.514Z,100343.81
2022-09-06T01:07:31.122Z,100375.72
2022-09-06T01:10:06.337Z,100493.81
2022-09-06T01:12:51.170Z,100507.22
2022-09-06T01:15:33.585Z,100444.59
2022-09-06T01:18:10.993Z,100448.41
2022-09-06T01:20:53.462Z,100482.94
2022-09-06T01:23:57.039Z,100496.06
2022-09-06T01:26:42.302Z,100487.09
2022-09-06T01:29:31.006Z,100493.44
2022-09-06T01:32:27.153Z,100483.34
2022-09-06T01:35:11.333Z,100491.88
2022-09-06T01:37:40.770Z,100497.69
2022-09-06T01:40:11.204Z,100520.06
2022-09-06T01:42:40.958Z,100513.97
2022-09-06T01:45:10.826Z,100480.44
2022-09-06T01:47:59.077Z,100513.41
2022-09-06T01:50:41.189Z,100479.88
2022-09-06T01:53:42.524Z,100469.59
2022-09-06T01:56:32.765Z,100463.25
2022-09-06T01:59:14.952Z,100417.47
2022-09-06T02:02:01.863Z,100441.22
2022-09-06T02:04:35.693Z,100429.00
2022-09-06T02:07:20.771Z,100414.47
2022-09-06T02:09:53.808Z,100394.13
2022-09-06T02:12:23.055Z,100389.59
2022-09-06T02:14:59.894Z,100415.63
2022-09-06T02:17:43.426Z,100433.66
2022-09-06T02:20:16.905Z,100460.31
2022-09-06T02:22:50.056Z,100466.56
2022-09-06T02:25:25.242Z,100444.56
2022-09-06T02:27:55.473Z,100418.22
2022-09-06T02:30:26.316Z,100429.34
2022-09-06T02:33:05.213Z,100436.66
2022-09-06T02:35:33.007Z,100405.09
2022-09-06T02:38:00.190Z,100414.53
2022-09-06T02:40:27.379Z,100397.19
2022-09-06T02:42:55.061Z,100403.19
2022-09-06T02:45:22.169Z,100401.50
2022-09-06T02:47:55.021Z,100388.75
2022-09-06T02:50:24.370Z,100403.63
2022-09-06T02:53:12.063Z,100394.78
2022-09-06T02:55:46.980Z,100402.53
2022-09-06T02:58:27.238Z,100394.28
2022-09-06T03:01:00.887Z,100408.97
2022-09-06T03:03:39.243Z,100415.84
2022-09-06T03:06:14.367Z,100404.00
2022-09-06T03:08:46.831Z,100413.63
2022-09-06T03:11:14.918Z,100413.69
2022-09-06T03:13:44.988Z,100396.03
2022-09-06T03:16:34.917Z,100434.53
2022-09-06T03:19:15.950Z,100384.97
2022-09-06T03:21:47.220Z,100378.06
2022-09-06T03:24:15.429Z,100414.25
2022-09-06T03:26:45.057Z,100413.63
2022-09-06T03:29:15.562Z,100408.13
2022-09-06T03:31:47.042Z,100374.56
2022-09-06T03:34:17.625Z,100411.84
2022-09-06T03:36:45.223Z,100411.00
2022-09-06T03:39:13.619Z,100413.44
2022-09-06T03:41:43.915Z,100414.00
2022-09-06T03:44:13.620Z,100403.97
2022-09-06T03:46:49.271Z,100415.00
2022-09-06T03:49:20.227Z,100398.03
2022-09-06T03:51:53.032Z,100406.38
2022-09-06T03:54:32.561Z,100363.50
2022-09-06T03:57:05.609Z,100396.09
2022-09-06T03:59:39.978Z,100388.34
2022-09-06T04:02:09.848Z,100383.69
2022-09-06T04:04:39.852Z,100399.69
2022-09-06T04:07:16.846Z,100404.59
2022-09-06T04:09:48.620Z,100394.78
2022-09-06T04:12:23.595Z,100408.38
2022-09-06T04:14:50.862Z,100407.66
2022-09-06T04:17:19.867Z,100400.97
2022-09-06T04:19:50.004Z,100399.75
2022-09-06T04:22:20.916Z,100389.59
2022-09-06T04:24:54.495Z,100361.28
2022-09-06T04:27:25.571Z,100397.41
2022-09-06T04:29:53.535Z,100406.34
2022-09-06T04:32:20.802Z,100405.28
2022-09-06T04:34:50.164Z,100392.28
2022-09-06T04:37:21.324Z,100396.94
2022-09-06T04:39:51.582Z,100390.34
2022-09-06T04:42:22.257Z,100396.06
2022-09-06T04:44:53.051Z,100397.47
2022-09-06T04:47:29.055Z,100403.22
2022-09-06T04:50:02.314Z,100393.44
2022-09-06T04:52:32.826Z,100399.03
2022-09-06T04:55:02.832Z,100404.38
2022-09-06T04:57:33.376Z,100377.72
2022-09-06T05:00:04.513Z,100406.88
2022-09-06T05:02:32.171Z,100410.25
2022-09-06T05:05:01.808Z,100403.59
2022-09-06T05:07:31.835Z,100415.25
2022-09-06T05:10:02.345Z,100414.94
2022-09-06T05:12:32.093Z,100413.97
2022-09-06T05:15:00.080Z,100400.00
2022-09-06T05:17:27.250Z,100406.84
2022-09-06T05:19:56.865Z,100384.75
2022-09-06T05:22:26.787Z,100409.13
2022-09-06T05:24:57.175Z,100384.69
2022-09-06T05:27:25.179Z,100413.94
2022-09-06T05:29:52.434Z,100398.34
2022-09-06T05:32:19.997Z,100406.47
2022-09-06T05:34:50.417Z,100408.38
2022-09-06T05:37:22.737Z,100398.13
2022-09-06T05:39:50.668Z,100395.28
2022-09-06T05:42:20.864Z,100414.56
2022-09-06T05:44:48.817Z,100408.50
2022-09-06T05:47:16.206Z,100419.56
2022-09-06T05:49:44.223Z,100417.59
2022-09-06T05:52:18.486Z,100427.38
2022-09-06T05:54:47.885Z,100429.09
2022-09-06T05:57:15.066Z,100404.16
2022-09-06T05:59:42.180Z,100424.66
2022-09-06T06:02:09.411Z,100421.97
2022-09-06T06:04:36.674Z,100429.03
2022-09-06T06:07:03.797Z,100430.53
2022-09-06T06:09:30.804Z,100440.97
2022-09-06T06:11:57.894Z,100407.34
2022-09-06T06:14:25.647Z,100442.16
2022-09-06T06:16:52.891Z,100443.94
2022-09-06T06:19:20.064Z,100412.13
2022-09-06T06:21:47.209Z,100434.63
2022-09-06T06:24:14.548Z,100436.97
2022-09-06T06:26:41.645Z,100434.09
2022-09-06T06:29:09.869Z,100444.84
2022-09-06T06:31:39.196Z,100439.97
2022-09-06T06:34:07.285Z,100442.81
2022-09-06T06:36:37.702Z,100442.56
2022-09-06T06:39:08.668Z,100448.06
2022-09-06T06:41:36.305Z,100446.38
2022-09-06T06:44:05.341Z,100447.47
2022-09-06T06:46:38.684Z,100440.66
2022-09-06T06:49:05.968Z,100434.31
2022-09-06T06:51:36.307Z,100438.16
2022-09-06T06:54:04.059Z,100439.47
2022-09-06T06:56:34.699Z,100456.50
2022-09-06T06:59:04.682Z,100452.69
2022-09-06T07:01:33.761Z,100457.13
2022-09-06T07:04:01.232Z,100424.38
2022-09-06T07:09:22.584Z,100443.63
2022-09-06T07:11:50.061Z,100448.81
2022-09-06T07:14:18.385Z,100439.00
2022-09-06T07:16:47.831Z,100439.06
2022-09-06T07:22:11.802Z,100439.31
2022-09-06T07:24:41.744Z,100436.94
2022-09-06T07:29:58.581Z,100438.75
2022-09-06T07:32:26.039Z,100440.03
2022-09-06T07:34:53.470Z,100443.09
2022-09-06T07:37:20.614Z,100445.19
2022-09-06T07:39:47.806Z,100440.09
2022-09-06T07:42:16.409Z,100443.72
2022-09-06T07:44:43.501Z,100436.44
2022-09-06T07:55:32.859Z,100450.16
2022-09-06T07:58:00.082Z,100450.94
2022-09-06T08:00:27.606Z,100457.13
2022-09-06T08:02:54.770Z,100448.78
2022-09-06T08:10:56.308Z,100455.38
2022-09-06T08:33:52.676Z,100439.34
2022-09-06T08:37:20.957Z,100443.59
2022-09-06T09:02:15.422Z,100427.06
2022-09-06T09:18:59.407Z,100421.44
2022-09-06T09:39:37.519Z,100421.56
2022-09-06T10:04:43.200Z,100416.91
2022-09-06T10:08:04.939Z,100405.16
2022-09-06T10:21:58.083Z,100388.81
2022-09-06T10:39:25.876Z,100374.56
2022-09-06T10:46:24.578Z,100378.44
2022-09-06T11:18:04.972Z,100353.31
2022-09-06T11:27:48.890Z,100352.19
2022-09-06T11:37:53.838Z,100343.00
2022-09-06T11:44:53.759Z,100334.88
2022-09-06T11:48:07.041Z,100335.00
2022-09-06T11:51:04.083Z,100329.19
2022-09-06T11:57:53.159Z,100333.59
2022-09-06T12:11:54.701Z,100314.16
2022-09-06T12:26:04.180Z,100295.41
2022-09-06T12:29:01.276Z,100295.28
2022-09-06T13:03:27.347Z,100259.72
2022-09-06T13:13:06.693Z,100250.47
2022-09-06T13:26:58.889Z,100240.59
2022-09-06T13:33:53.309Z,100232.38
2022-09-06T13:45:02.331Z,100219.63
2022-09-06T13:51:47.540Z,100201.75
2022-09-06T13:55:05.305Z,100206.44
2022-09-06T14:05:15.408Z,100168.66
2022-09-06T14:31:14.927Z,100175.00
2022-09-06T14:55:35.885Z,100176.06
2022-09-06T15:09:47.006Z,100170.97
2022-09-06T15:22:56.352Z,100184.78
2022-09-06T15:25:36.351Z,100178.13
2022-09-06T15:28:03.635Z,100175.41
2022-09-06T15:30:30.760Z,100171.47
2022-09-06T15:32:57.886Z,100158.88
2022-09-06T15:35:25.040Z,100150.00
2022-09-06T15:37:52.054Z,100160.03
2022-09-06T15:40:29.490Z,100158.63
2022-09-06T15:42:56.582Z,100164.81
2022-09-06T15:45:23.696Z,100163.94
2022-09-06T15:47:51.213Z,100160.50
2022-09-06T15:50:34.419Z,100137.16
2022-09-06T15:53:05.413Z,100147.47
2022-09-06T15:55:50.718Z,100154.69
2022-09-06T15:58:18.190Z,100154.66
2022-09-06T16:00:45.304Z,100153.88
2022-09-06T16:03:14.332Z,100119.94
2022-09-06T16:08:29.559Z,100148.19
2022-09-06T16:10:57.452Z,100147.34
2022-09-06T16:13:26.295Z,100151.78
2022-09-06T16:15:58.424Z,100144.84
2022-09-06T16:18:29.167Z,100142.84
2022-09-06T16:20:56.412Z,100112.25
2022-09-06T16:23:23.703Z,100125.16
2022-09-06T16:25:54.458Z,100123.75
2022-09-06T16:28:21.605Z,100106.63
2022-09-06T16:30:48.835Z,100121.59
2022-09-06T16:33:16.285Z,100115.97
2022-09-06T16:35:43.836Z,100110.75
2022-09-06T16:38:10.961Z,100116.94
2022-09-06T16:40:43.273Z,100125.44
2022-09-06T16:43:10.465Z,100117.06
2022-09-06T16:45:42.529Z,100124.34
2022-09-06T16:48:09.887Z,100133.16
2022-09-06T16:50:37.005Z,100137.78
2022-09-06T16:53:04.108Z,100103.44
2022-09-06T16:55:31.265Z,100140.13
2022-09-06T16:57:58.533Z,100090.00
2022-09-06T17:00:25.740Z,100114.41
2022-09-06T17:02:53.085Z,100140.47
2022-09-06T17:05:20.141Z,100139.19
2022-09-06T17:07:47.457Z,100135.69
2022-09-06T17:10:14.748Z,100138.06
2022-09-06T17:12:41.962Z,100142.09
2022-09-06T17:15:11.881Z,100141.78
2022-09-06T17:17:39.227Z,100116.81
2022-09-06T17:20:06.736Z,100133.81
2022-09-06T17:22:33.861Z,100138.47
2022-09-06T17:25:05.867Z,100128.16
2022-09-06T17:27:33.419Z,100120.19
2022-09-06T17:30:00.428Z,100110.56
2022-09-06T17:32:27.874Z,100112.59
2022-09-06T17:34:55.063Z,100107.81
2022-09-06T17:37:23.339Z,100102.06
2022-09-06T17:39:50.610Z,100102.31
2022-09-06T17:42:17.856Z,100104.44
2022-09-06T17:44:46.742Z,100101.53
2022-09-06T17:47:14.351Z,100099.56
2022-09-06T17:49:43.246Z,100100.44
2022-09-06T17:52:11.038Z,100101.72
2022-09-06T17:54:38.145Z,100104.91
2022-09-06T17:57:05.411Z,100101.06
2022-09-06T17:59:35.336Z,100096.16
2022-09-06T18:02:06.133Z,100092.66
2022-09-06T18:04:33.753Z,100098.50
2022-09-06T18:07:01.015Z,100100.75
2022-09-06T18:09:31.137Z,100095.94
2022-09-06T18:11:58.876Z,100072.56
2022-09-06T18:14:28.890Z,100100.41
2022-09-06T18:16:58.856Z,100062.13
2022-09-06T18:19:32.439Z,100100.16
2022-09-06T18:22:12.932Z,100106.72
2022-09-06T18:24:40.891Z,100111.00
2022-09-06T18:27:20.631Z,100115.78
2022-09-06T18:29:56.109Z,100114.16
2022-09-06T18:32:35.267Z,100105.22
2022-09-06T18:35:16.558Z,100085.00
2022-09-06T18:37:48.608Z,100103.38
2022-09-06T18:40:24.276Z,100101.44
2022-09-06T18:43:00.036Z,100104.94
2022-09-06T18:45:33.166Z,100080.00
2022-09-06T18:48:00.421Z,100100.19
2022-09-06T18:50:27.466Z,100102.38
2022-09-06T18:52:59.653Z,100108.47
2022-09-06T18:55:59.761Z,100120.06
2022-09-06T18:58:36.146Z,100129.34
2022-09-06T19:01:15.062Z,100126.28
2022-09-06T19:03:42.819Z,100136.91
2022-09-06T19:06:12.527Z,100124.41
2022-09-06T19:08:40.177Z,100118.84
2022-09-06T19:11:13.667Z,100123.91
2022-09-06T19:13:42.081Z,100157.25
2022-09-06T19:16:18.265Z,100133.91
2022-09-06T19:18:45.436Z,100141.44
2022-09-06T19:21:17.892Z,100130.19
2022-09-06T19:23:58.457Z,100141.16
2022-09-06T19:26:27.529Z,100146.59
2022-09-06T19:28:58.773Z,100142.09
2022-09-06T19:31:29.590Z,100129.91
2022-09-06T19:33:57.193Z,100137.34
2022-09-06T19:36:25.972Z,100138.28
2022-09-06T19:39:03.972Z,100126.72
2022-09-06T19:41:34.586Z,100119.28
2022-09-06T19:44:03.861Z,100118.78
2022-09-06T19:46:31.033Z,100097.19
2022-09-06T19:49:04.047Z,100112.81
2022-09-06T19:51:34.358Z,100103.59
2022-09-06T19:54:01.633Z,100099.97
2022-09-06T19:56:32.018Z,100071.06
2022-09-06T19:59:07.529Z,100089.56
2022-09-06T20:01:39.199Z,100082.50
2022-09-06T20:04:12.248Z,100078.59
2022-09-06T20:06:47.731Z,100077.47
2022-09-06T20:09:18.114Z,100083.13
2022-09-06T20:11:47.924Z,100084.75
2022-09-06T20:14:15.226Z,100077.69
2022-09-06T20:16:43.346Z,100089.91
2022-09-06T20:19:12.322Z,100082.78
2022-09-06T20:21:45.474Z,100086.75
2022-09-06T20:24:12.692Z,100083.69
2022-09-06T20:26:40.727Z,100092.41
2022-09-06T20:29:11.274Z,100068.59
2022-09-06T20:31:38.879Z,100093.81
2022-09-06T20:34:07.301Z,100063.34
2022-09-06T20:36:38.437Z,100088.19
2022-09-06T20:39:05.976Z,100089.19
2022-09-06T20:41:35.032Z,100064.31
2022-09-06T20:44:02.400Z,100089.50
2022-09-06T20:46:32.512Z,100085.00
2022-09-06T20:49:04.426Z,100083.34
2022-09-06T20:51:33.891Z,100070.66
2022-09-06T20:54:02.496Z,100074.50
2022-09-06T20:56:38.711Z,100075.19
2022-09-06T20:59:11.061Z,100080.69
2022-09-06T21:01:42.672Z,100076.22
2022-09-06T21:04:11.063Z,100076.53
2022-09-06T21:06:39.779Z,100065.41
2022-09-06T21:09:13.506Z,100073.03
2022-09-06T21:11:41.333Z,100076.22
2022-09-06T21:14:09.559Z,100075.34
2022-09-06T21:16:38.103Z,100076.03
2022-09-06T21:19:09.094Z,100076.50
2022-09-06T21:21:37.133Z,100084.13
2022-09-06T21:24:06.132Z,100059.69
2022-09-06T21:26:34.022Z,100085.75
2022-09-06T21:29:01.037Z,100083.09
2022-09-06T21:31:30.419Z,100074.69
2022-09-06T21:33:59.632Z,100096.75
2022-09-06T21:36:31.965Z,100095.69
2022-09-06T21:39:05.527Z,100105.13
2022-09-06T21:41:35.275Z,100104.41
2022-09-06T21:44:03.839Z,100094.00
2022-09-06T21:46:33.691Z,100066.53
2022-09-06T21:49:04.564Z,100093.63
2022-09-06T21:51:32.830Z,100098.59
2022-09-06T21:54:03.709Z,100094.31
2022-09-06T21:56:32.092Z,100071.28
2022-09-06T21:58:59.422Z,100073.56
2022-09-06T22:01:32.778Z,100076.81
2022-09-06T22:04:00.854Z,100074.31
2022-09-06T22:06:29.789Z,100064.94
2022-09-06T22:08:59.161Z,100064.16
2022-09-06T22:11:29.333Z,100075.66
2022-09-06T22:14:02.012Z,100072.13
2022-09-06T22:16:30.421Z,100067.31
2022-09-06T22:18:57.605Z,100069.03
2022-09-06T22:21:25.100Z,100073.81
2022-09-06T22:24:01.517Z,100078.16
2022-09-06T22:26:30.929Z,100076.75
2022-09-06T22:29:00.254Z,100082.34
2022-09-06T22:31:29.677Z,100070.41
2022-09-06T22:33:58.855Z,100059.84
2022-09-06T22:36:27.374Z,100043.19
2022-09-06T22:38:57.827Z,100061.50
2022-09-06T22:41:27.789Z,100057.34
2022-09-06T22:43:55.380Z,100049.44
2022-09-06T22:46:23.372Z,100040.44
2022-09-06T22:48:50.732Z,100059.38
2022-09-06T22:51:18.100Z,100058.34
2022-09-06T22:53:45.300Z,100054.56
2022-09-06T22:56:12.412Z,100045.56
2022-09-06T22:58:39.584Z,100047.03
2022-09-06T23:01:12.859Z,100035.25
2022-09-06T23:03:43.595Z,100036.50
2022-09-06T23:06:11.570Z,100031.53
2022-09-06T23:08:40.293Z,100031.06
2022-09-06T23:11:10.531Z,100025.53
2022-09-06T23:13:38.482Z,100021.78
2022-09-06T23:16:07.587Z,100023.00
2022-09-06T23:18:35.066Z,100015.69
2022-09-06T23:21:10.690Z,100021.50
2022-09-06T23:23:38.600Z,100014.56
2022-09-06T23:26:13.813Z,100020.78
2022-09-06T23:28:44.655Z,100027.09
2022-09-06T23:31:15.402Z,100032.81
2022-09-06T23:33:42.969Z,100035.19
2022-09-06T23:36:15.061Z,100029.13
2022-09-06T23:38:46.415Z,100030.94
2022-09-06T23:41:14.175Z,100028.94
2022-09-06T23:43:43.511Z,100019.06
2022-09-06T23:46:13.494Z,100032.63
2022-09-06T23:48:42.135Z,100024.84
2022-09-06T23:51:09.898Z,100024.56
2022-09-06T23:53:40.452Z,100025.53
2022-09-06T23:56:08.414Z,100024.94
2022-09-06T23:58:36.264Z,100009.53
